Time;durP1;ratioP1;P1;durP2;ratioP2;P2;SDS_P1;SDS_P2;PMS_P1;PMS_P2;Temp;Humidity;BMP_temperature;BMP_pressure;BME280_temperature;BME280_humidity;BME280_pressure;Samples;Min_cycle;Max_cycle;Signal;HPM_P1;HPM_P2
2024/01/21 00:00:48;;;;;;;0.10;0.10;;;0.20;99.90;;;;;;5079305;28;20048;-82
2024/01/21 00:03:14;;;;;;;0.00;0.00;;;0.30;99.90;;;;;;5109424;28;20056;-82
2024/01/21 00:05:40;;;;;;;0.77;0.77;;;0.30;99.90;;;;;;5100147;28;20493;-82
2024/01/21 00:08:06;;;;;;;0.30;0.30;;;0.30;99.90;;;;;;5074953;28;20489;-83
2024/01/21 00:10:31;;;;;;;0.10;0.10;;;0.30;99.90;;;;;;5102378;28;20052;-83
2024/01/21 00:12:57;;;;;;;8.13;0.97;;;0.40;99.90;;;;;;5100134;28;20054;-82
2024/01/21 00:15:22;;;;;;;0.53;0.40;;;0.40;99.90;;;;;;5088650;28;20130;-82
2024/01/21 00:17:48;;;;;;;0.30;0.30;;;0.40;99.90;;;;;;5084632;28;20048;-83
2024/01/21 00:20:14;;;;;;;0.40;0.40;;;0.30;99.90;;;;;;5078388;28;20035;-82
2024/01/21 00:22:40;;;;;;;0.17;0.17;;;0.40;99.90;;;;;;5107347;28;20036;-82
2024/01/21 00:25:09;;;;;;;1.53;1.23;;;0.40;99.90;;;;;;5107308;28;20043;-84
2024/01/21 00:27:37;;;;;;;0.10;0.10;;;0.40;99.90;;;;;;5114753;28;20099;-84
2024/01/21 00:30:04;;;;;;;0.93;0.93;;;0.40;99.90;;;;;;5103282;28;20051;-83
2024/01/21 00:32:30;;;;;;;4.17;1.90;;;0.40;99.90;;;;;;5103201;28;20464;-84
2024/01/21 00:34:56;;;;;;;0.80;0.80;;;0.40;99.90;;;;;;5106056;28;20512;-84
2024/01/21 00:37:21;;;;;;;0.47;0.47;;;0.50;99.90;;;;;;5105756;28;20040;-84
2024/01/21 00:39:47;;;;;;;0.27;0.27;;;0.20;99.90;;;;;;5088096;28;20087;-84
2024/01/21 00:42:13;;;;;;;0.23;0.23;;;0.20;99.90;;;;;;5083468;28;20402;-83
2024/01/21 00:44:38;;;;;;;0.23;0.23;;;0.10;99.90;;;;;;5075973;28;20098;-83
2024/01/21 00:47:04;;;;;;;0.10;0.10;;;0.10;99.90;;;;;;5077768;28;20047;-83
2024/01/21 00:49:30;;;;;;;0.40;0.40;;;0.00;99.90;;;;;;5105155;28;20463;-83
2024/01/21 00:51:56;;;;;;;0.40;0.40;;;0.10;99.90;;;;;;5113726;28;20443;-83
2024/01/21 00:54:22;;;;;;;0.27;0.27;;;0.10;99.90;;;;;;5106412;28;20572;-84
2024/01/21 00:56:48;;;;;;;0.73;0.73;;;0.00;99.90;;;;;;5098788;28;20174;-84
2024/01/21 00:59:13;;;;;;;0.90;0.90;;;0.10;99.90;;;;;;5077345;28;20051;-84
2024/01/21 01:01:39;;;;;;;3.20;2.07;;;0.20;99.90;;;;;;5105523;28;20126;-84
2024/01/21 01:04:05;;;;;;;0.07;0.07;;;0.30;99.90;;;;;;5078826;28;20078;-84
2024/01/21 01:06:32;;;;;;;0.77;0.77;;;0.30;99.90;;;;;;5110514;28;20087;-84
2024/01/21 01:08:58;;;;;;;0.50;0.50;;;0.80;99.90;;;;;;5074511;28;20334;-84
2024/01/21 01:11:24;;;;;;;0.50;0.50;;;0.30;99.90;;;;;;5101179;28;20320;-84
2024/01/21 01:13:50;;;;;;;0.13;0.13;;;0.30;99.90;;;;;;5101490;28;20086;-84
2024/01/21 01:16:16;;;;;;;0.00;0.00;;;0.30;99.90;;;;;;5109644;28;20047;-84
2024/01/21 01:18:42;;;;;;;0.23;0.23;;;0.30;99.90;;;;;;5069888;28;20058;-84
2024/01/21 01:21:10;;;;;;;0.00;0.00;;;0.50;99.90;;;;;;5104538;28;20036;-84
2024/01/21 01:23:35;;;;;;;0.20;0.20;;;0.40;99.90;;;;;;5077533;28;20048;-84
2024/01/21 01:26:01;;;;;;;0.10;0.10;;;0.50;99.90;;;;;;5104420;28;20046;-84
2024/01/21 01:28:27;;;;;;;0.00;0.00;;;0.60;99.90;;;;;;5096485;28;20044;-84
2024/01/21 01:30:52;;;;;;;0.10;0.10;;;0.60;99.90;;;;;;5100780;28;20401;-84
2024/01/21 01:33:18;;;;;;;0.00;0.00;;;0.70;99.90;;;;;;5073767;28;20048;-84
2024/01/21 01:35:44;;;;;;;0.00;0.00;;;0.70;99.90;;;;;;5101773;28;20101;-84
2024/01/21 01:38:12;;;;;;;0.37;0.37;;;0.70;99.90;;;;;;5088976;28;20032;-84
2024/01/21 01:40:38;;;;;;;0.00;0.00;;;0.70;99.90;;;;;;5099468;28;20161;-84
2024/01/21 01:43:03;;;;;;;7.33;1.13;;;0.70;99.90;;;;;;5098696;28;20598;-84
2024/01/21 01:45:30;;;;;;;0.20;0.20;;;0.80;99.90;;;;;;5072780;28;20044;-84
2024/01/21 01:47:56;;;;;;;1.73;1.50;;;0.80;99.90;;;;;;5099298;28;20048;-84
2024/01/21 01:50:22;;;;;;;1.37;1.27;;;0.80;99.90;;;;;;5099048;28;20047;-84
2024/01/21 01:52:49;;;;;;;0.73;0.43;;;0.80;99.90;;;;;;5071996;28;20052;-84
2024/01/21 01:55:15;;;;;;;0.10;0.10;;;0.80;99.90;;;;;;5099278;28;20044;-84
2024/01/21 01:57:41;;;;;;;0.30;0.30;;;0.90;99.90;;;;;;5099754;28;20044;-84
2024/01/21 02:00:07;;;;;;;1.00;0.80;;;0.90;99.90;;;;;;5107520;28;20082;-83
2024/01/21 02:02:35;;;;;;;2.40;2.20;;;0.90;99.90;;;;;;5090119;28;20036;-84
2024/01/21 02:05:04;;;;;;;0.10;0.10;;;0.90;99.90;;;;;;5071285;28;20043;-84
2024/01/21 02:07:30;;;;;;;0.20;0.20;;;0.90;99.90;;;;;;5097153;28;20048;-84
2024/01/21 02:09:56;;;;;;;0.40;0.40;;;0.90;99.90;;;;;;5096838;28;20570;-84
2024/01/21 02:12:22;;;;;;;0.07;0.07;;;0.90;99.90;;;;;;5097530;28;20062;-84
2024/01/21 02:14:48;;;;;;;0.30;0.30;;;0.90;99.90;;;;;;5070269;28;20050;-84
2024/01/21 02:17:13;;;;;;;0.10;0.10;;;0.90;99.90;;;;;;5097001;28;20482;-84
2024/01/21 02:19:39;;;;;;;2.53;2.33;;;0.90;99.90;;;;;;5099728;28;20519;-84
2024/01/21 02:22:05;;;;;;;0.10;0.10;;;0.90;99.90;;;;;;5100350;28;20051;-84
2024/01/21 02:24:31;;;;;;;0.53;0.53;;;0.80;99.90;;;;;;5081897;28;20279;-84
2024/01/21 02:26:57;;;;;;;0.40;0.37;;;0.80;99.90;;;;;;5100072;28;20525;-84
2024/01/21 02:29:23;;;;;;;2.43;1.10;;;0.80;99.90;;;;;;5100748;28;20043;-84
2024/01/21 02:31:50;;;;;;;0.20;0.20;;;0.70;99.90;;;;;;5099424;28;20051;-84
2024/01/21 02:34:16;;;;;;;0.10;0.10;;;0.70;99.90;;;;;;5083501;28;20044;-84
2024/01/21 02:36:43;;;;;;;0.93;0.93;;;0.70;99.90;;;;;;5096526;28;20036;-83
2024/01/21 02:39:09;;;;;;;1.37;1.23;;;0.80;99.90;;;;;;5101059;28;20382;-84
2024/01/21 02:41:34;;;;;;;0.23;0.23;;;0.70;99.90;;;;;;5092400;28;20071;-84
2024/01/21 02:44:01;;;;;;;0.10;0.10;;;0.80;99.90;;;;;;5093020;28;20051;-84
2024/01/21 02:46:26;;;;;;;0.50;0.50;;;0.80;98.00;;;;;;5102787;28;20048;-84
2024/01/21 02:48:52;;;;;;;0.53;0.53;;;0.90;96.70;;;;;;5102642;28;20051;-84
2024/01/21 02:51:18;;;;;;;0.40;0.40;;;1.00;96.10;;;;;;5074281;28;20051;-84
2024/01/21 02:53:43;;;;;;;0.20;0.20;;;0.90;95.80;;;;;;5073070;28;20051;-84
2024/01/21 02:56:18;;;;;;;0.10;0.10;;;0.80;95.10;;;;;;5101602;28;20169;-84
2024/01/21 02:58:44;;;;;;;0.25;0.25;;;0.90;94.20;;;;;;5103108;28;20086;-84
2024/01/21 03:01:10;;;;;;;0.00;0.00;;;1.00;93.30;;;;;;5100938;28;20043;-84
2024/01/21 03:03:35;;;;;;;0.53;0.30;;;1.00;73.20;;;;;;5098382;28;20051;-84
2024/01/21 03:06:01;;;;;;;0.07;0.07;;;1.10;73.10;;;;;;5071848;28;20603;-84
2024/01/21 03:08:26;;;;;;;0.23;0.20;;;1.20;69.30;;;;;;5101170;28;20099;-84
2024/01/21 03:10:53;;;;;;;0.00;0.00;;;1.10;71.40;;;;;;5077582;28;20052;-84
2024/01/21 03:13:19;;;;;;;0.00;0.00;;;1.10;66.30;;;;;;5099940;28;20090;-84
2024/01/21 03:15:44;;;;;;;0.17;0.17;;;1.00;55.80;;;;;;5079708;28;20044;-85
2024/01/21 03:18:10;;;;;;;0.30;0.30;;;1.10;55.90;;;;;;5098934;28;20584;-84
2024/01/21 03:20:36;;;;;;;0.00;0.00;;;1.00;46.00;;;;;;5057764;28;20044;-84
2024/01/21 03:23:02;;;;;;;0.00;0.00;;;1.00;52.20;;;;;;5104976;28;20517;-84
2024/01/21 03:25:27;;;;;;;1.00;0.90;;;1.10;46.60;;;;;;5097972;28;20097;-84
2024/01/21 03:27:53;;;;;;;0.00;0.00;;;1.10;38.40;;;;;;5098897;28;20057;-84
2024/01/21 03:30:18;;;;;;;0.03;0.03;;;1.10;33.80;;;;;;5098954;28;20042;-84
2024/01/21 03:32:44;;;;;;;0.77;0.77;;;1.20;32.10;;;;;;5097746;28;20047;-84
2024/01/21 03:35:09;;;;;;;0.00;0.00;;;1.20;27.30;;;;;;5097933;28;20063;-84
2024/01/21 03:37:35;;;;;;;0.00;0.00;;;1.30;23.00;;;;;;5098509;28;20092;-84
2024/01/21 03:40:01;;;;;;;0.00;0.00;;;1.30;20.70;;;;;;5097903;28;20032;-84
2024/01/21 03:42:26;;;;;;;0.00;0.00;;;1.40;20.40;;;;;;5104194;28;20054;-84
2024/01/21 03:44:52;;;;;;;0.60;0.60;;;1.40;13.50;;;;;;5092185;28;20040;-84
2024/01/21 03:47:17;;;;;;;0.20;0.20;;;1.70;5.60;;;;;;5077048;28;20044;-84
2024/01/21 03:49:43;;;;;;;0.30;0.30;;;1.30;6.20;;;;;;5097429;28;20044;-84
2024/01/21 03:52:09;;;;;;;0.10;0.10;;;1.30;1.00;;;;;;5108620;28;20070;-84
2024/01/21 03:54:34;;;;;;;0.07;0.07;;;1.20;1.00;;;;;;5106132;28;20051;-84
2024/01/21 03:57:00;;;;;;;0.20;0.20;;;1.10;1.00;;;;;;5080795;28;20084;-84
2024/01/21 03:59:25;;;;;;;0.17;0.17;;;1.10;1.00;;;;;;5082334;28;20041;-84
2024/01/21 04:01:51;;;;;;;0.00;0.00;;;1.00;1.00;;;;;;5087364;28;20040;-84
2024/01/21 04:04:17;;;;;;;0.10;0.10;;;0.90;1.00;;;;;;5110510;28;20040;-84
2024/01/21 04:06:43;;;;;;;0.00;0.00;;;1.00;1.00;;;;;;5106823;28;20142;-84
2024/01/21 04:09:09;;;;;;;0.00;0.00;;;1.10;1.00;;;;;;5108032;28;20051;-84
2024/01/21 04:11:35;;;;;;;1.70;1.50;;;1.00;1.00;;;;;;5108833;28;20058;-84
2024/01/21 04:14:01;;;;;;;0.00;0.00;;;1.00;1.00;;;;;;5108413;28;20463;-84
2024/01/21 04:16:27;;;;;;;2.03;0.77;;;0.90;1.00;;;;;;5101663;28;20386;-84
2024/01/21 04:18:53;;;;;;;0.20;0.20;;;0.80;1.00;;;;;;5108394;28;20085;-84
2024/01/21 04:21:18;;;;;;;0.00;0.00;;;1.00;1.00;;;;;;5105795;28;20036;-84
2024/01/21 04:23:44;;;;;;;0.37;0.37;;;1.10;1.00;;;;;;5103854;28;20069;-84
2024/01/21 04:26:09;;;;;;;0.00;0.00;;;1.30;1.00;;;;;;5077335;28;20048;-84
2024/01/21 04:28:37;;;;;;;0.33;0.33;;;1.30;1.00;;;;;;5060308;28;20079;-84
2024/01/21 04:31:02;;;;;;;0.00;0.00;;;1.30;1.00;;;;;;5104471;28;20055;-84
2024/01/21 04:33:28;;;;;;;0.17;0.17;;;1.30;1.00;;;;;;5104854;28;20040;-85
2024/01/21 04:35:54;;;;;;;0.00;0.00;;;1.30;1.00;;;;;;5106681;28;20078;-84
2024/01/21 04:38:23;;;;;;;0.00;0.00;;;1.30;1.00;;;;;;5106954;28;20044;-85
2024/01/21 04:40:49;;;;;;;0.00;0.00;;;1.30;1.00;;;;;;5068786;28;20056;-85
2024/01/21 04:43:15;;;;;;;0.00;0.00;;;1.20;1.00;;;;;;5103142;28;20494;-84
2024/01/21 04:45:40;;;;;;;0.30;0.30;;;1.20;1.00;;;;;;5078184;28;20036;-85
2024/01/21 04:48:06;;;;;;;0.20;0.20;;;1.30;1.00;;;;;;5108882;28;20095;-83
2024/01/21 04:50:32;;;;;;;0.40;0.40;;;1.40;1.00;;;;;;5109070;28;20036;-83
2024/01/21 04:52:57;;;;;;;0.00;0.00;;;1.50;1.00;;;;;;5106726;28;20044;-82
2024/01/21 04:55:23;;;;;;;0.00;0.00;;;1.50;1.00;;;;;;5108923;28;20051;-83
2024/01/21 04:57:49;;;;;;;0.10;0.10;;;1.50;1.00;;;;;;5059487;28;20058;-83
2024/01/21 05:00:15;;;;;;;0.00;0.00;;;1.50;1.00;;;;;;5098731;28;20048;-84
2024/01/21 05:02:40;;;;;;;1.03;0.93;;;1.60;1.00;;;;;;5098309;28;20420;-84
2024/01/21 05:05:06;;;;;;;0.13;0.13;;;1.70;1.00;;;;;;5100862;28;20131;-84
2024/01/21 05:07:32;;;;;;;0.00;0.00;;;1.70;1.00;;;;;;5076669;28;20072;-84
2024/01/21 05:09:58;;;;;;;0.00;0.00;;;1.60;1.00;;;;;;5071179;28;20081;-84
2024/01/21 05:12:23;;;;;;;0.00;0.00;;;1.70;1.00;;;;;;5096932;28;20600;-84
2024/01/21 05:14:49;;;;;;;0.00;0.00;;;1.50;1.00;;;;;;5070289;28;20048;-84
2024/01/21 05:17:15;;;;;;;1.17;0.87;;;1.60;1.00;;;;;;5073094;28;20192;-84
2024/01/21 05:19:40;;;;;;;1.97;0.40;;;1.50;1.00;;;;;;5086369;28;20048;-84
2024/01/21 05:22:06;;;;;;;0.20;0.20;;;1.60;1.00;;;;;;5056247;28;20040;-84
2024/01/21 05:24:35;;;;;;;0.13;0.13;;;1.90;1.00;;;;;;5080692;28;20046;-84
2024/01/21 05:27:01;;;;;;;0.00;0.00;;;1.70;1.00;;;;;;5071523;28;20044;-83
2024/01/21 05:29:27;;;;;;;0.00;0.00;;;1.50;1.00;;;;;;5108822;28;20177;-84
2024/01/21 05:31:52;;;;;;;0.00;0.00;;;1.40;1.00;;;;;;5085465;28;20115;-84
2024/01/21 05:34:18;;;;;;;0.00;0.00;;;1.40;1.00;;;;;;5070529;28;20079;-84
2024/01/21 05:36:44;;;;;;;0.00;0.00;;;1.40;1.00;;;;;;5100778;28;20427;-84
2024/01/21 05:39:09;;;;;;;0.47;0.47;;;1.30;1.00;;;;;;5075205;28;20128;-84
2024/01/21 05:41:35;;;;;;;0.00;0.00;;;1.30;1.00;;;;;;5070513;28;20031;-84
2024/01/21 05:44:01;;;;;;;0.00;0.00;;;1.50;1.00;;;;;;5071112;28;20052;-84
2024/01/21 05:46:26;;;;;;;1.60;1.30;;;1.50;1.00;;;;;;5096767;28;20560;-84
2024/01/21 05:48:52;;;;;;;0.00;0.00;;;1.60;1.00;;;;;;5073445;28;20069;-84
2024/01/21 05:51:17;;;;;;;0.13;0.13;;;1.90;1.00;;;;;;5060111;28;20052;-85
2024/01/21 05:53:43;;;;;;;0.40;0.40;;;1.70;1.00;;;;;;5098325;28;20074;-84
2024/01/21 05:56:10;;;;;;;0.00;0.00;;;1.80;1.00;;;;;;5077976;28;20044;-84
2024/01/21 05:58:35;;;;;;;0.27;0.27;;;1.90;1.00;;;;;;5097887;28;20043;-85
2024/01/21 06:01:01;;;;;;;0.10;0.10;;;1.80;1.00;;;;;;5099494;28;20056;-85
2024/01/21 06:03:27;;;;;;;0.00;0.00;;;2.00;1.00;;;;;;5100937;28;20044;-84
2024/01/21 06:05:52;;;;;;;0.63;0.40;;;2.00;1.00;;;;;;5074417;28;20055;-84
2024/01/21 06:08:18;;;;;;;1.37;1.27;;;2.00;1.00;;;;;;5079771;28;20080;-84
2024/01/21 06:10:44;;;;;;;0.00;0.00;;;1.90;1.00;;;;;;5070262;28;20395;-84
2024/01/21 06:13:09;;;;;;;0.03;0.03;;;1.90;1.00;;;;;;5100590;28;20059;-84
2024/01/21 06:15:36;;;;;;;0.00;0.00;;;1.90;1.00;;;;;;5077444;28;20565;-84
2024/01/21 06:18:01;;;;;;;0.03;0.03;;;1.90;1.00;;;;;;5090111;28;20048;-84
2024/01/21 06:20:27;;;;;;;0.00;0.00;;;1.90;1.00;;;;;;5101361;28;20531;-84
2024/01/21 06:22:53;;;;;;;1.30;0.60;;;1.90;1.00;;;;;;5076272;28;20129;-84
2024/01/21 06:25:18;;;;;;;0.00;0.00;;;1.80;1.00;;;;;;5072848;28;20058;-84
2024/01/21 06:27:44;;;;;;;0.00;0.00;;;1.80;1.00;;;;;;5104468;28;20559;-84
2024/01/21 06:30:11;;;;;;;0.10;0.10;;;1.70;1.00;;;;;;5098139;28;20056;-84
2024/01/21 06:32:36;;;;;;;0.37;0.37;;;2.30;1.00;;;;;;5098397;28;20044;-84
2024/01/21 06:35:02;;;;;;;0.00;0.00;;;1.80;1.00;;;;;;5071161;28;20044;-84
2024/01/21 06:37:28;;;;;;;0.00;0.00;;;1.90;1.00;;;;;;5070284;28;20063;-84
2024/01/21 06:39:53;;;;;;;0.17;0.17;;;1.80;1.00;;;;;;5099954;28;20047;-84
2024/01/21 06:42:19;;;;;;;0.17;0.17;;;1.90;1.00;;;;;;5092727;28;20482;-84
2024/01/21 06:44:45;;;;;;;1.50;0.77;;;1.90;1.00;;;;;;5055098;28;20056;-84
2024/01/21 06:47:10;;;;;;;0.00;0.00;;;1.90;1.00;;;;;;5099724;28;20485;-84
2024/01/21 06:49:36;;;;;;;1.03;0.97;;;1.90;1.00;;;;;;5103454;28;20107;-84
2024/01/21 06:52:02;;;;;;;0.00;0.00;;;1.90;1.00;;;;;;5076911;28;20071;-84
2024/01/21 06:54:27;;;;;;;0.00;0.00;;;1.90;1.00;;;;;;5102193;28;20039;-84
2024/01/21 06:56:53;;;;;;;0.00;0.00;;;2.00;1.00;;;;;;5106611;28;20178;-84
2024/01/21 06:59:18;;;;;;;0.20;0.20;;;2.00;1.00;;;;;;5083489;28;20044;-84
2024/01/21 07:01:44;;;;;;;0.00;0.00;;;1.90;1.00;;;;;;5076711;28;20065;-84
2024/01/21 07:04:09;;;;;;;0.00;0.00;;;1.90;1.00;;;;;;5057229;28;20075;-83
2024/01/21 07:06:35;;;;;;;0.20;0.20;;;1.90;1.00;;;;;;5064134;28;20052;-84
2024/01/21 07:09:01;;;;;;;0.30;0.30;;;1.90;1.00;;;;;;5077783;28;20051;-83
2024/01/21 07:11:27;;;;;;;0.10;0.10;;;2.00;1.00;;;;;;5102739;28;20080;-83
2024/01/21 07:13:53;;;;;;;0.00;0.00;;;2.00;1.00;;;;;;5102308;28;20062;-83
2024/01/21 07:16:18;;;;;;;0.10;0.10;;;2.00;1.00;;;;;;5088041;28;20044;-83
2024/01/21 07:18:44;;;;;;;0.00;0.00;;;2.00;1.00;;;;;;5095970;28;20546;-83
2024/01/21 07:21:10;;;;;;;0.20;0.20;;;1.90;1.00;;;;;;5104153;28;20044;-84
2024/01/21 07:23:38;;;;;;;0.50;0.50;;;1.90;1.00;;;;;;5106567;28;20036;-83
2024/01/21 07:26:04;;;;;;;0.20;0.20;;;2.10;1.00;;;;;;5107068;28;20070;-83
2024/01/21 07:28:29;;;;;;;0.00;0.00;;;2.00;1.00;;;;;;5082262;28;20052;-83
2024/01/21 07:30:55;;;;;;;0.13;0.13;;;1.90;1.00;;;;;;5109795;28;20051;-83
2024/01/21 07:33:20;;;;;;;0.00;0.00;;;1.90;1.00;;;;;;5082718;28;20044;-83
2024/01/21 07:35:49;;;;;;;0.00;0.00;;;1.90;1.00;;;;;;5087271;28;20104;-83
2024/01/21 07:38:16;;;;;;;0.30;0.30;;;1.90;1.00;;;;;;5079345;28;20067;-84
2024/01/21 07:40:41;;;;;;;0.10;0.10;;;1.90;1.00;;;;;;5077648;28;20073;-84
2024/01/21 07:43:08;;;;;;;0.00;0.00;;;1.80;1.00;;;;;;5108783;28;20040;-84
2024/01/21 07:45:34;;;;;;;0.10;0.10;;;2.00;1.00;;;;;;5076036;28;20063;-84
2024/01/21 07:48:00;;;;;;;0.00;0.00;;;1.90;1.00;;;;;;5106304;28;20052;-84
2024/01/21 07:50:26;;;;;;;0.93;0.87;;;1.90;1.00;;;;;;5073007;28;20043;-84
2024/01/21 07:52:52;;;;;;;0.00;0.00;;;1.90;1.00;;;;;;5100283;28;20121;-84
2024/01/21 07:55:17;;;;;;;0.23;0.23;;;1.90;1.00;;;;;;5072817;28;20068;-84
2024/01/21 07:57:43;;;;;;;0.00;0.00;;;1.90;1.00;;;;;;5072302;28;20048;-84
2024/01/21 08:00:09;;;;;;;0.43;0.43;;;1.90;1.00;;;;;;5073199;28;20055;-84
2024/01/21 08:02:35;;;;;;;0.47;0.47;;;2.00;1.00;;;;;;5105864;28;20044;-83
2024/01/21 08:05:01;;;;;;;0.00;0.00;;;2.00;1.00;;;;;;5073658;28;20490;-84
2024/01/21 08:07:27;;;;;;;0.00;0.00;;;1.90;1.00;;;;;;5076887;28;20497;-84
2024/01/21 08:09:52;;;;;;;0.97;0.60;;;1.90;1.00;;;;;;5070844;28;20080;-85
2024/01/21 08:12:18;;;;;;;0.60;0.60;;;1.90;1.00;;;;;;5106255;28;20044;-85
2024/01/21 08:14:44;;;;;;;1.10;1.03;;;2.00;1.00;;;;;;5103281;28;20171;-85
2024/01/21 08:17:09;;;;;;;0.00;0.00;;;2.00;1.00;;;;;;5072378;28;20051;-84
2024/01/21 08:19:38;;;;;;;0.07;0.07;;;1.90;1.00;;;;;;5076950;28;20048;-84
2024/01/21 08:22:04;;;;;;;0.00;0.00;;;2.00;1.00;;;;;;5073005;28;20056;-84
2024/01/21 08:24:29;;;;;;;0.00;0.00;;;2.00;1.00;;;;;;5059306;28;20042;-84
2024/01/21 08:26:56;;;;;;;2.53;0.93;;;2.00;1.00;;;;;;5086418;28;20052;-84
2024/01/21 08:29:22;;;;;;;0.10;0.10;;;2.10;1.00;;;;;;5098345;28;20434;-85
2024/01/21 08:31:48;;;;;;;0.30;0.30;;;2.10;1.00;;;;;;5071667;28;20052;-84
2024/01/21 08:34:13;;;;;;;0.60;0.60;;;2.30;1.00;;;;;;5071423;28;20043;-84
2024/01/21 08:36:39;;;;;;;0.20;0.20;;;2.30;1.00;;;;;;5073720;28;20122;-84
2024/01/21 08:39:09;;;;;;;0.00;0.00;;;2.30;1.00;;;;;;5074660;28;20170;-84
2024/01/21 08:41:35;;;;;;;0.10;0.10;;;2.30;1.00;;;;;;5069096;28;20048;-84
2024/01/21 08:44:02;;;;;;;1.10;0.87;;;2.30;1.00;;;;;;5069123;28;20055;-84
2024/01/21 08:46:27;;;;;;;0.20;0.20;;;2.30;1.00;;;;;;5069093;28;20051;-84
2024/01/21 08:48:53;;;;;;;0.50;0.50;;;2.20;1.00;;;;;;5072540;28;20039;-84
2024/01/21 08:51:19;;;;;;;0.00;0.00;;;2.20;1.00;;;;;;5089116;28;20096;-84
2024/01/21 08:53:44;;;;;;;0.00;0.00;;;2.00;1.00;;;;;;5071757;28;20047;-84
2024/01/21 08:56:10;;;;;;;0.00;0.00;;;2.10;1.00;;;;;;5075629;28;20036;-84
2024/01/21 08:58:36;;;;;;;0.30;0.30;;;2.00;1.00;;;;;;5068723;28;20467;-84
2024/01/21 09:01:01;;;;;;;0.00;0.00;;;2.20;1.00;;;;;;5072195;28;20062;-85
2024/01/21 09:03:27;;;;;;;0.10;0.10;;;2.40;1.00;;;;;;5081523;28;20076;-84
2024/01/21 09:05:52;;;;;;;0.30;0.30;;;2.50;1.00;;;;;;5077087;28;20036;-84
2024/01/21 09:08:18;;;;;;;0.20;0.20;;;2.70;1.00;;;;;;5105487;28;20043;-85
2024/01/21 09:10:44;;;;;;;0.20;0.20;;;2.70;1.00;;;;;;5080232;28;20048;-85
2024/01/21 09:13:09;;;;;;;0.00;0.00;;;2.80;1.00;;;;;;5071317;28;20448;-84
2024/01/21 09:15:35;;;;;;;0.23;0.20;;;2.90;1.00;;;;;;5098349;28;20131;-84
2024/01/21 09:18:01;;;;;;;1.13;0.97;;;2.90;1.00;;;;;;5072559;28;20089;-84
2024/01/21 09:20:26;;;;;;;0.00;0.00;;;2.80;1.00;;;;;;5075585;28;20079;-84
2024/01/21 09:22:52;;;;;;;0.67;0.67;;;2.70;1.00;;;;;;5067952;28;20588;-84
2024/01/21 09:25:17;;;;;;;0.97;0.97;;;2.70;1.00;;;;;;5069248;28;20044;-85
2024/01/21 09:27:43;;;;;;;0.10;0.10;;;2.70;1.00;;;;;;5074933;28;20046;-84
2024/01/21 09:30:09;;;;;;;0.33;0.33;;;2.80;1.00;;;;;;5067591;28;20066;-84
2024/01/21 09:32:35;;;;;;;0.47;0.33;;;2.90;1.00;;;;;;5068052;28;20445;-84
2024/01/21 09:35:00;;;;;;;0.10;0.10;;;3.00;1.00;;;;;;5067429;28;20131;-84
2024/01/21 09:37:26;;;;;;;0.10;0.10;;;3.00;1.00;;;;;;5096104;28;20047;-84
2024/01/21 09:39:52;;;;;;;2.20;0.57;;;3.00;1.00;;;;;;5058529;28;20036;-84
2024/01/21 09:42:17;;;;;;;0.00;0.00;;;3.10;1.00;;;;;;5074044;28;20516;-84
2024/01/21 09:44:43;;;;;;;0.80;0.80;;;3.30;4.70;;;;;;5074228;28;20044;-84
2024/01/21 09:47:10;;;;;;;0.47;0.32;;;3.30;4.90;;;;;;5075712;28;20055;-84
2024/01/21 09:49:37;;;;;;;0.20;0.20;;;3.30;8.30;;;;;;5101897;28;20047;-84
2024/01/21 09:52:04;;;;;;;0.00;0.00;;;3.30;10.60;;;;;;5104501;28;20059;-84
2024/01/21 09:54:30;;;;;;;1.03;0.93;;;3.30;19.00;;;;;;5078856;28;20040;-84
2024/01/21 09:56:56;;;;;;;0.20;0.20;;;3.40;14.80;;;;;;5109915;28;20653;-84
2024/01/21 09:59:22;;;;;;;2.47;1.67;;;3.60;7.20;;;;;;5074517;28;20490;-84
2024/01/21 10:01:48;;;;;;;3.40;0.68;;;3.20;10.90;;;;;;5076705;28;20405;-84
2024/01/21 10:04:14;;;;;;;9.40;1.17;;;3.20;12.70;;;;;;5083516;28;20066;-84
2024/01/21 10:06:40;;;;;;;0.10;0.10;;;3.20;14.30;;;;;;5099949;28;20044;-84
2024/01/21 10:09:23;;;;;;;0.63;0.63;;;3.20;18.60;;;;;;5103240;28;20047;-83
2024/01/21 10:11:56;;;;;;;0.00;0.00;;;3.40;24.70;;;;;;5101921;28;20052;-83
2024/01/21 10:14:29;;;;;;;0.20;0.20;;;3.50;22.40;;;;;;5067692;28;20044;-84
2024/01/21 10:16:59;;;;;;;0.17;0.10;;;3.70;32.70;;;;;;5101982;28;20035;-83
2024/01/21 10:19:33;;;;;;;1.50;1.33;;;3.70;35.20;;;;;;5067108;28;20642;-83
2024/01/21 10:22:15;;;;;;;0.90;0.90;;;3.70;34.30;;;;;;5102422;28;20040;-83
2024/01/21 10:24:42;;;;;;;0.00;0.00;;;3.70;38.60;;;;;;5094879;28;20093;-84
2024/01/21 10:27:09;;;;;;;0.63;0.57;;;3.70;40.10;;;;;;5102332;28;20520;-84
2024/01/21 10:29:41;;;;;;;1.23;0.70;;;3.70;57.20;;;;;;5104330;28;20471;-83
2024/01/21 10:32:09;;;;;;;0.63;0.35;;;3.70;47.90;;;;;;5113791;28;20435;-83
2024/01/21 10:34:35;;;;;;;0.00;0.00;;;4.00;59.10;;;;;;5101448;28;20048;-84
2024/01/21 10:37:04;;;;;;;0.20;0.20;;;4.10;65.40;;;;;;5074643;28;20059;-83
2024/01/21 10:39:34;;;;;;;0.50;0.50;;;4.20;67.20;;;;;;5075210;28;20044;-83
2024/01/21 10:42:00;;;;;;;0.17;0.17;;;4.30;73.60;;;;;;5098478;28;20040;-84
2024/01/21 10:44:28;;;;;;;0.73;0.73;;;4.30;84.70;;;;;;5108575;28;20043;-84
2024/01/21 10:46:59;;;;;;;0.50;0.50;;;4.20;90.20;;;;;;5073380;28;20124;-84
2024/01/21 10:49:24;;;;;;;18.93;1.27;;;4.20;95.20;;;;;;5072365;28;20048;-84
2024/01/21 10:51:53;;;;;;;0.23;0.23;;;4.10;95.10;;;;;;5091959;28;20079;-84
2024/01/21 10:54:20;;;;;;;0.10;0.10;;;4.10;99.00;;;;;;5105978;28;20104;-83
2024/01/21 10:56:48;;;;;;;0.30;0.30;;;4.10;99.90;;;;;;5101170;28;20195;-84
2024/01/21 10:59:14;;;;;;;1.27;0.88;;;4.00;99.90;;;;;;5073077;28;20130;-84
2024/01/21 11:01:42;;;;;;;0.43;0.43;;;4.00;99.90;;;;;;5091331;28;20079;-84
2024/01/21 11:04:12;;;;;;;0.57;0.50;;;4.10;99.90;;;;;;5059226;28;20043;-84
2024/01/21 11:06:44;;;;;;;0.50;0.43;;;4.20;99.90;;;;;;5095199;28;20048;-84
2024/01/21 11:09:10;;;;;;;0.63;0.57;;;4.10;99.90;;;;;;5099434;28;20067;-84
2024/01/21 11:11:46;;;;;;;0.10;0.10;;;4.10;99.90;;;;;;5073280;28;20066;-84
2024/01/21 11:14:30;;;;;;;0.20;0.20;;;4.30;99.90;;;;;;5076288;28;20051;-84
2024/01/21 11:16:57;;;;;;;0.20;0.17;;;4.30;99.90;;;;;;5102124;28;20935;-84
2024/01/21 11:19:24;;;;;;;0.10;0.10;;;4.30;99.90;;;;;;5103555;28;20099;-84
2024/01/21 11:21:55;;;;;;;1.17;1.08;;;4.30;99.90;;;;;;5077261;28;20131;-83
2024/01/21 11:24:28;;;;;;;2.50;0.70;;;4.30;99.90;;;;;;5075392;28;20553;-84
2024/01/21 11:26:55;;;;;;;0.45;0.45;;;4.40;99.90;;;;;;5076087;28;20560;-84
2024/01/21 11:29:29;;;;;;;0.22;0.22;;;4.40;99.90;;;;;;5072892;28;20044;-84
2024/01/21 11:32:03;;;;;;;0.00;0.00;;;4.40;99.90;;;;;;5098149;28;20075;-85
2024/01/21 11:34:36;;;;;;;0.40;0.40;;;4.40;99.90;;;;;;5094261;28;20048;-85
2024/01/21 11:37:02;;;;;;;0.80;0.38;;;4.40;99.90;;;;;;5065415;28;20048;-85
2024/01/21 11:39:27;;;;;;;3.50;1.60;;;4.30;99.90;;;;;;5066468;28;20417;-85
2024/01/21 11:41:53;;;;;;;0.20;0.20;;;4.30;99.90;;;;;;5094969;28;20458;-85
2024/01/21 11:44:27;;;;;;;0.75;0.75;;;4.40;99.90;;;;;;5095109;28;20051;-85
2024/01/21 11:46:55;;;;;;;0.20;0.20;;;4.40;99.90;;;;;;5058128;28;20452;-84
2024/01/21 11:49:21;;;;;;;0.57;0.57;;;4.40;99.90;;;;;;5093341;28;20401;-84
2024/01/21 11:51:47;;;;;;;0.53;0.53;;;4.40;99.90;;;;;;5096273;28;20085;-84
2024/01/21 11:54:14;;;;;;;0.80;0.32;;;4.50;99.90;;;;;;5099090;28;20077;-84
2024/01/21 11:56:43;;;;;;;1.08;0.40;;;4.50;99.90;;;;;;5098595;28;20587;-84
2024/01/21 11:59:10;;;;;;;0.00;0.00;;;4.50;99.90;;;;;;5096831;28;20040;-84
2024/01/21 12:01:37;;;;;;;1.08;0.47;;;4.40;99.90;;;;;;5096129;28;20063;-84
2024/01/21 12:04:04;;;;;;;0.40;0.40;;;4.40;99.90;;;;;;5070708;28;20116;-84
2024/01/21 12:06:37;;;;;;;0.28;0.28;;;4.40;99.90;;;;;;5097225;28;20040;-85
2024/01/21 12:09:03;;;;;;;0.60;0.60;;;4.40;99.90;;;;;;5070271;28;20139;-84
2024/01/21 12:11:33;;;;;;;0.00;0.00;;;4.30;99.90;;;;;;5075630;28;20444;-84
2024/01/21 12:13:59;;;;;;;0.00;0.00;;;4.30;99.90;;;;;;5096276;28;20070;-85
2024/01/21 12:16:25;;;;;;;0.43;0.43;;;4.30;99.90;;;;;;5076078;28;20047;-85
2024/01/21 12:18:51;;;;;;;0.75;0.30;;;4.30;99.90;;;;;;5095105;28;20067;-85
2024/01/21 12:21:17;;;;;;;0.10;0.10;;;4.40;99.90;;;;;;5097020;28;20401;-85
2024/01/21 12:23:44;;;;;;;0.20;0.20;;;4.40;99.90;;;;;;5097884;28;20045;-85
2024/01/21 12:26:18;;;;;;;0.33;0.20;;;4.30;99.90;;;;;;5098210;28;20086;-85
2024/01/21 12:28:59;;;;;;;1.30;0.87;;;4.20;99.90;;;;;;5098063;28;20039;-85
2024/01/21 12:31:30;;;;;;;0.90;0.90;;;4.20;99.90;;;;;;5086944;28;20063;-85
2024/01/21 12:34:00;;;;;;;3.00;0.63;;;4.30;99.90;;;;;;5094127;28;20097;-85
2024/01/21 12:36:25;;;;;;;0.32;0.32;;;4.30;99.90;;;;;;5096055;28;20502;-85
2024/01/21 12:38:53;;;;;;;0.00;0.00;;;4.30;99.90;;;;;;5101779;28;20086;-85
2024/01/21 12:41:20;;;;;;;0.30;0.30;;;4.30;99.90;;;;;;5094222;28;20048;-85
2024/01/21 12:43:47;;;;;;;3.03;1.95;;;4.30;99.90;;;;;;5093650;28;20056;-85
2024/01/21 12:46:13;;;;;;;0.05;0.05;;;4.20;99.90;;;;;;5094340;28;20047;-85
2024/01/21 12:48:39;;;;;;;0.63;0.63;;;4.30;99.90;;;;;;5102930;28;20429;-85
2024/01/21 12:51:04;;;;;;;0.10;0.10;;;4.30;99.90;;;;;;5067481;28;20083;-85
2024/01/21 12:53:30;;;;;;;1.13;0.77;;;4.40;99.90;;;;;;5094206;28;20563;-85
2024/01/21 12:55:56;;;;;;;0.08;0.08;;;4.40;99.90;;;;;;5102617;28;20040;-85
2024/01/21 12:58:22;;;;;;;0.00;0.00;;;4.30;99.90;;;;;;5092279;28;20433;-85